Time;durP1;ratioP1;P1;durP2;ratioP2;P2;SDS_P1;SDS_P2;PMS_P1;PMS_P2;Temp;Humidity;BMP_temperature;BMP_pressure;BME280_temperature;BME280_humidity;BME280_pressure;Samples;Min_cycle;Max_cycle;Signal;HPM_P1;HPM_P2
2022/04/07 00:01:45;;;;;;;0.70;0.60;;;17.30;64.70;;;;;;5254982;28;20688;-68
2022/04/07 00:04:37;;;;;;;1.43;0.60;;;17.30;65.30;;;;;;5251940;28;20204;-68
2022/04/07 00:07:30;;;;;;;0.50;0.50;;;17.30;64.70;;;;;;5246894;28;20192;-68
2022/04/07 00:10:23;;;;;;;0.60;0.43;;;17.30;64.70;;;;;;5249916;28;20263;-68
2022/04/07 00:13:15;;;;;;;0.60;0.50;;;17.30;64.70;;;;;;5265749;28;20290;-69
2022/04/07 00:16:07;;;;;;;0.70;0.70;;;17.30;64.70;;;;;;5267153;28;20791;-68
2022/04/07 00:19:00;;;;;;;0.60;0.50;;;17.30;64.70;;;;;;5256128;28;20298;-68
2022/04/07 00:21:52;;;;;;;0.97;0.50;;;17.30;64.60;;;;;;5241508;28;20212;-68
2022/04/07 00:24:44;;;;;;;0.50;0.50;;;17.30;64.60;;;;;;5246646;28;20193;-68
2022/04/07 00:27:37;;;;;;;0.60;0.47;;;17.30;64.70;;;;;;5246581;28;20242;-68
2022/04/07 00:30:30;;;;;;;0.47;0.47;;;17.30;64.70;;;;;;5247091;28;20273;-69
2022/04/07 00:33:22;;;;;;;0.50;0.50;;;17.30;64.60;;;;;;5257140;23;20291;-64
2022/04/07 00:36:14;;;;;;;0.93;0.50;;;17.30;64.70;;;;;;5209077;28;20677;-64
2022/04/07 00:39:06;;;;;;;0.37;0.30;;;17.30;64.60;;;;;;5213813;28;20236;-64
2022/04/07 00:41:58;;;;;;;0.70;0.50;;;17.30;64.70;;;;;;5205443;28;20216;-64
2022/04/07 00:44:52;;;;;;;0.57;0.50;;;17.30;64.60;;;;;;5185999;28;20221;-64
2022/04/07 00:47:45;;;;;;;0.60;0.37;;;17.30;64.70;;;;;;5207916;28;20197;-65
2022/04/07 00:50:37;;;;;;;1.53;0.40;;;17.30;64.70;;;;;;5199520;28;20191;-64
2022/04/07 00:53:29;;;;;;;0.93;0.60;;;17.30;64.70;;;;;;5186104;28;20215;-64
2022/04/07 00:56:21;;;;;;;0.40;0.40;;;17.30;64.70;;;;;;5184788;28;20198;-64
2022/04/07 00:59:17;;;;;;;0.70;0.70;;;17.30;64.70;;;;;;5197165;28;20562;-64
2022/04/07 01:02:10;;;;;;;0.73;0.63;;;17.30;64.70;;;;;;5208419;28;20201;-64
2022/04/07 01:05:02;;;;;;;0.67;0.43;;;17.30;64.70;;;;;;5205347;28;20221;-64
2022/04/07 01:07:55;;;;;;;1.60;0.60;;;17.30;64.70;;;;;;5205668;28;20577;-64
2022/04/07 01:10:48;;;;;;;0.50;0.47;;;17.30;64.70;;;;;;5205482;28;20189;-64
2022/04/07 01:13:45;;;;;;;0.40;0.40;;;17.30;64.70;;;;;;5204902;28;20219;-65
2022/04/07 01:16:37;;;;;;;0.60;0.40;;;17.30;64.70;;;;;;5186077;28;20202;-64
2022/04/07 01:19:31;;;;;;;0.40;0.40;;;17.30;64.60;;;;;;5185185;28;20716;-64
2022/04/07 01:22:24;;;;;;;0.50;0.50;;;17.20;64.60;;;;;;5183977;28;20247;-64
2022/04/07 01:25:17;;;;;;;0.90;0.40;;;17.20;64.60;;;;;;5183629;28;20219;-64
2022/04/07 01:28:09;;;;;;;0.43;0.43;;;17.30;64.70;;;;;;5202466;28;20665;-64
2022/04/07 01:31:01;;;;;;;0.90;0.60;;;17.30;64.70;;;;;;5204938;28;20194;-62
2022/04/07 01:33:54;;;;;;;2.20;0.60;;;17.20;64.60;;;;;;5204545;28;20230;-64
2022/04/07 01:36:52;;;;;;;0.60;0.50;;;17.20;64.60;;;;;;5204338;28;20198;-64
2022/04/07 01:39:45;;;;;;;0.80;0.40;;;17.30;64.70;;;;;;5203961;28;20210;-64
2022/04/07 01:42:39;;;;;;;0.83;0.43;;;17.20;64.60;;;;;;5205035;28;20194;-64
2022/04/07 01:45:33;;;;;;;0.40;0.30;;;17.20;64.70;;;;;;5205361;28;20201;-64
2022/04/07 01:48:25;;;;;;;0.73;0.50;;;17.20;64.60;;;;;;5205594;28;20194;-64
2022/04/07 01:51:19;;;;;;;0.83;0.57;;;17.20;64.60;;;;;;5202381;28;20190;-64
2022/04/07 01:54:11;;;;;;;1.13;0.60;;;17.20;64.60;;;;;;5205376;28;20214;-64
2022/04/07 01:57:04;;;;;;;0.50;0.47;;;17.20;64.60;;;;;;5214707;28;20203;-64
2022/04/07 01:59:59;;;;;;;0.50;0.50;;;17.20;64.60;;;;;;5224128;28;20209;-64
2022/04/07 02:02:51;;;;;;;0.50;0.40;;;17.20;64.60;;;;;;5209463;28;20204;-65
2022/04/07 02:05:44;;;;;;;0.40;0.40;;;17.20;64.60;;;;;;5206756;28;20197;-64
2022/04/07 02:08:36;;;;;;;0.57;0.50;;;17.20;64.60;;;;;;5223766;28;20199;-64
2022/04/07 02:11:28;;;;;;;0.70;0.37;;;17.20;64.60;;;;;;5224114;28;20545;-64
2022/04/07 02:14:20;;;;;;;0.63;0.40;;;17.20;64.60;;;;;;5224819;28;20217;-64
2022/04/07 02:17:14;;;;;;;0.40;0.40;;;17.20;64.60;;;;;;5223627;28;20197;-64
2022/04/07 02:20:09;;;;;;;0.83;0.50;;;17.20;64.70;;;;;;5208982;28;20210;-64
2022/04/07 02:23:01;;;;;;;0.47;0.40;;;17.20;64.60;;;;;;5203677;28;20197;-64
2022/04/07 02:25:53;;;;;;;0.40;0.40;;;17.20;64.70;;;;;;5193972;28;20220;-64
2022/04/07 02:28:45;;;;;;;0.43;0.40;;;17.20;64.60;;;;;;5204065;28;20204;-64
2022/04/07 02:31:38;;;;;;;1.17;0.50;;;17.20;64.60;;;;;;5203465;28;20204;-64
2022/04/07 02:34:31;;;;;;;1.03;0.60;;;17.20;64.60;;;;;;5206350;28;20225;-64
2022/04/07 02:37:25;;;;;;;1.83;0.60;;;17.20;64.60;;;;;;5184882;28;20289;-64
2022/04/07 02:40:17;;;;;;;0.43;0.43;;;17.20;64.60;;;;;;5183701;28;20213;-64
2022/04/07 02:43:09;;;;;;;2.00;0.50;;;17.20;64.60;;;;;;5199193;28;20276;-64
2022/04/07 02:46:01;;;;;;;0.63;0.47;;;17.20;64.60;;;;;;5223916;28;20197;-64
2022/04/07 02:48:53;;;;;;;0.40;0.40;;;17.30;64.70;;;;;;5222997;28;20193;-64
2022/04/07 02:51:46;;;;;;;0.40;0.40;;;17.20;64.60;;;;;;5206876;28;20198;-64
2022/04/07 02:54:39;;;;;;;0.67;0.50;;;17.20;64.60;;;;;;5204323;28;20600;-64
2022/04/07 02:57:31;;;;;;;0.40;0.30;;;17.20;64.70;;;;;;5203071;28;20201;-64
2022/04/07 03:00:23;;;;;;;0.43;0.40;;;17.20;64.60;;;;;;5203888;28;20704;-64
2022/04/07 03:03:15;;;;;;;0.50;0.30;;;17.20;64.70;;;;;;5203813;28;20386;-64
2022/04/07 03:06:07;;;;;;;0.50;0.40;;;17.20;64.60;;;;;;5205253;28;20194;-64
2022/04/07 03:09:00;;;;;;;0.83;0.50;;;17.20;64.70;;;;;;5209460;28;20197;-64
2022/04/07 03:11:53;;;;;;;0.40;0.40;;;17.20;64.70;;;;;;5200393;28;20202;-64
2022/04/07 03:14:45;;;;;;;0.30;0.30;;;17.20;64.60;;;;;;5203684;28;20214;-64
2022/04/07 03:17:37;;;;;;;1.33;0.40;;;17.20;64.60;;;;;;5204270;28;20202;-63
2022/04/07 03:20:29;;;;;;;0.70;0.30;;;17.20;64.60;;;;;;5198018;28;20232;-65
2022/04/07 03:23:21;;;;;;;0.40;0.40;;;17.20;65.00;;;;;;5187382;28;20222;-64
2022/04/07 03:26:14;;;;;;;0.30;0.30;;;17.20;64.70;;;;;;5188610;28;20221;-64
2022/04/07 03:29:06;;;;;;;0.87;0.50;;;17.20;64.60;;;;;;5187661;28;20195;-65
2022/04/07 03:31:59;;;;;;;0.60;0.40;;;17.20;64.70;;;;;;5189070;28;20681;-64
2022/04/07 03:34:51;;;;;;;0.40;0.40;;;17.20;64.70;;;;;;5207897;28;20604;-64
2022/04/07 03:37:43;;;;;;;0.50;0.40;;;17.20;64.60;;;;;;5209688;28;20236;-64
2022/04/07 03:40:35;;;;;;;0.57;0.30;;;17.20;64.60;;;;;;5207142;28;20583;-64
2022/04/07 03:43:29;;;;;;;1.07;0.50;;;17.20;64.60;;;;;;5206338;28;20229;-64
2022/04/07 03:46:21;;;;;;;0.33;0.33;;;17.20;64.60;;;;;;5214469;28;20204;-64
2022/04/07 03:49:13;;;;;;;0.37;0.37;;;17.20;64.60;;;;;;5227368;28;20198;-64
2022/04/07 03:52:06;;;;;;;0.40;0.40;;;17.20;64.60;;;;;;5206551;28;20568;-64
2022/04/07 03:54:58;;;;;;;0.20;0.20;;;17.20;64.60;;;;;;5207217;28;20601;-64
2022/04/07 03:57:50;;;;;;;0.30;0.30;;;17.20;64.60;;;;;;5206377;28;20328;-65
2022/04/07 04:00:44;;;;;;;0.30;0.30;;;17.20;64.70;;;;;;5206949;28;20612;-65
2022/04/07 04:03:36;;;;;;;0.40;0.30;;;17.20;64.60;;;;;;5206465;28;20600;-64
2022/04/07 04:06:28;;;;;;;0.60;0.50;;;17.20;64.60;;;;;;5224485;28;20599;-64
2022/04/07 04:09:20;;;;;;;0.77;0.40;;;17.20;64.70;;;;;;5223136;28;20570;-64
2022/04/07 04:12:12;;;;;;;0.40;0.30;;;17.20;64.60;;;;;;5198386;28;20201;-64
2022/04/07 04:15:05;;;;;;;0.20;0.20;;;17.20;64.60;;;;;;5206505;28;20245;-64
2022/04/07 04:17:59;;;;;;;0.40;0.40;;;17.20;64.60;;;;;;5207087;28;20254;-64
2022/04/07 04:20:51;;;;;;;0.40;0.30;;;17.30;64.70;;;;;;5185930;28;20222;-64
2022/04/07 04:23:43;;;;;;;0.90;0.50;;;17.30;64.60;;;;;;5185806;28;20226;-64
2022/04/07 04:26:35;;;;;;;0.40;0.40;;;17.30;64.60;;;;;;5184964;28;20202;-64
2022/04/07 04:29:27;;;;;;;0.60;0.53;;;17.30;64.60;;;;;;5187094;28;20676;-64
2022/04/07 04:32:19;;;;;;;0.60;0.37;;;17.30;64.60;;;;;;5198792;28;20196;-65
2022/04/07 04:35:13;;;;;;;0.43;0.30;;;17.30;64.60;;;;;;5185890;28;20233;-64
2022/04/07 04:38:05;;;;;;;0.30;0.30;;;17.30;64.60;;;;;;5205669;28;20281;-65
2022/04/07 04:40:57;;;;;;;0.50;0.40;;;17.30;64.60;;;;;;5205930;28;20217;-64
2022/04/07 04:43:50;;;;;;;0.40;0.40;;;17.30;64.50;;;;;;5205789;28;20222;-65
2022/04/07 04:46:42;;;;;;;1.13;0.50;;;17.30;64.50;;;;;;5205673;28;20202;-64
2022/04/07 04:49:34;;;;;;;0.30;0.30;;;17.30;64.60;;;;;;5207553;28;20205;-63
2022/04/07 04:52:27;;;;;;;0.67;0.23;;;17.30;64.60;;;;;;5185619;28;20197;-64
2022/04/07 04:55:20;;;;;;;0.50;0.50;;;17.30;64.60;;;;;;5186367;28;20215;-64
2022/04/07 04:58:12;;;;;;;0.40;0.20;;;17.30;64.60;;;;;;5205637;28;20213;-64
2022/04/07 05:01:04;;;;;;;0.40;0.40;;;17.30;64.50;;;;;;5204881;28;20222;-63
2022/04/07 05:03:56;;;;;;;0.40;0.30;;;17.30;64.50;;;;;;5204926;28;20230;-65
2022/04/07 05:06:48;;;;;;;0.40;0.40;;;17.30;64.60;;;;;;5206465;28;20197;-64
2022/04/07 05:09:41;;;;;;;0.53;0.40;;;17.30;64.60;;;;;;5206539;28;20204;-64
2022/04/07 05:12:34;;;;;;;0.30;0.30;;;17.30;64.60;;;;;;5205021;28;20202;-64
2022/04/07 05:15:26;;;;;;;0.20;0.20;;;17.30;64.50;;;;;;5206048;28;20217;-64
2022/04/07 05:18:18;;;;;;;0.30;0.30;;;17.30;64.50;;;;;;5206260;28;20198;-65
2022/04/07 05:21:10;;;;;;;1.07;0.30;;;17.30;64.60;;;;;;5205393;28;20257;-64
2022/04/07 05:24:02;;;;;;;0.23;0.23;;;17.30;64.60;;;;;;5207270;28;20495;-63
2022/04/07 05:26:56;;;;;;;0.63;0.40;;;17.30;64.60;;;;;;5204903;28;20206;-64
2022/04/07 05:29:48;;;;;;;0.40;0.30;;;17.30;64.60;;;;;;5205918;28;20190;-64
2022/04/07 05:32:40;;;;;;;0.67;0.37;;;17.30;64.60;;;;;;5203770;28;20193;-64
2022/04/07 05:35:32;;;;;;;0.50;0.37;;;17.30;64.60;;;;;;5203588;28;20206;-64
2022/04/07 05:38:24;;;;;;;0.40;0.37;;;17.40;64.60;;;;;;5204756;28;20198;-64
2022/04/07 05:41:16;;;;;;;0.40;0.30;;;17.30;64.60;;;;;;5204914;28;20210;-64
2022/04/07 05:44:09;;;;;;;0.30;0.30;;;17.30;64.60;;;;;;5204937;28;20237;-64
2022/04/07 05:47:02;;;;;;;0.30;0.30;;;17.30;64.60;;;;;;5210520;28;20200;-64
2022/04/07 05:49:54;;;;;;;0.30;0.30;;;17.30;64.60;;;;;;5223097;28;20423;-64
2022/04/07 05:52:47;;;;;;;0.30;0.20;;;17.30;64.60;;;;;;5205179;28;20194;-64
2022/04/07 05:55:39;;;;;;;0.30;0.30;;;17.30;64.60;;;;;;5205627;28;20200;-64
2022/04/07 05:58:31;;;;;;;0.60;0.30;;;17.30;64.60;;;;;;5199839;28;20530;-65
2022/04/07 06:01:24;;;;;;;0.93;0.43;;;17.30;64.60;;;;;;5183683;28;20207;-64
2022/04/07 06:04:16;;;;;;;0.90;0.50;;;17.30;64.60;;;;;;5190957;28;20213;-64
2022/04/07 06:07:08;;;;;;;0.50;0.20;;;17.30;64.60;;;;;;5204349;28;20573;-64
2022/04/07 06:10:01;;;;;;;1.17;0.50;;;17.30;64.60;;;;;;5201568;28;20198;-64
2022/04/07 06:12:54;;;;;;;0.60;0.30;;;17.30;64.60;;;;;;5205984;28;20202;-65
2022/04/07 06:15:46;;;;;;;0.93;0.40;;;17.30;64.60;;;;;;5200073;28;20683;-65
2022/04/07 06:18:39;;;;;;;0.20;0.20;;;17.30;64.60;;;;;;5208423;28;20679;-65
2022/04/07 06:21:33;;;;;;;0.37;0.20;;;17.30;64.70;;;;;;5195608;28;20211;-64
2022/04/07 06:24:25;;;;;;;1.00;0.30;;;17.30;64.60;;;;;;5205144;28;20217;-64
2022/04/07 06:27:17;;;;;;;0.30;0.20;;;17.30;64.70;;;;;;5211190;28;20197;-64
2022/04/07 06:30:11;;;;;;;0.57;0.30;;;17.40;64.70;;;;;;5224953;28;20199;-64
2022/04/07 06:33:04;;;;;;;0.30;0.20;;;17.30;64.60;;;;;;5202322;28;20198;-64
2022/04/07 06:35:57;;;;;;;0.20;0.20;;;17.30;64.60;;;;;;5203126;28;20688;-64
2022/04/07 06:38:49;;;;;;;0.80;0.40;;;17.40;64.70;;;;;;5202735;28;20213;-64
2022/04/07 06:41:41;;;;;;;0.30;0.30;;;17.30;64.70;;;;;;5212677;28;20292;-64
2022/04/07 06:44:33;;;;;;;0.50;0.30;;;17.30;64.70;;;;;;5216787;28;20222;-64
2022/04/07 06:47:25;;;;;;;0.37;0.37;;;17.30;64.70;;;;;;5194310;28;20197;-64
2022/04/07 06:50:19;;;;;;;1.23;0.30;;;17.30;64.70;;;;;;5183391;28;20202;-65
2022/04/07 06:53:13;;;;;;;0.30;0.30;;;17.40;64.80;;;;;;5195218;28;20208;-64
2022/04/07 06:56:05;;;;;;;0.83;0.33;;;17.30;64.70;;;;;;5205305;28;20635;-64
2022/04/07 06:58:57;;;;;;;0.23;0.23;;;17.30;64.70;;;;;;5205735;28;20197;-65
2022/04/07 07:01:50;;;;;;;0.50;0.30;;;17.30;64.70;;;;;;5205738;28;20217;-65
2022/04/07 07:04:42;;;;;;;0.60;0.30;;;17.30;64.70;;;;;;5205671;28;20213;-64
2022/04/07 07:07:34;;;;;;;0.40;0.20;;;17.30;64.60;;;;;;5197719;28;20216;-65
2022/04/07 07:10:29;;;;;;;0.70;0.40;;;17.30;64.70;;;;;;5197646;28;20205;-64
2022/04/07 07:13:23;;;;;;;1.53;0.40;;;17.30;64.70;;;;;;5205587;28;20300;-64
2022/04/07 07:16:15;;;;;;;0.23;0.20;;;17.40;64.80;;;;;;5205666;28;20686;-64
2022/04/07 07:19:07;;;;;;;1.23;0.40;;;17.40;64.80;;;;;;5217528;28;20194;-65
2022/04/07 07:21:59;;;;;;;0.50;0.40;;;17.40;64.70;;;;;;5203936;28;20601;-64
2022/04/07 07:24:51;;;;;;;0.60;0.43;;;17.40;64.70;;;;;;5205206;28;20758;-65
2022/04/07 07:27:46;;;;;;;1.30;0.40;;;17.40;64.70;;;;;;5204098;28;20206;-64
2022/04/07 07:30:38;;;;;;;1.60;0.40;;;17.40;64.60;;;;;;5204264;28;20206;-64
2022/04/07 07:33:31;;;;;;;1.03;0.23;;;17.40;64.70;;;;;;5203549;28;20228;-64
2022/04/07 07:36:23;;;;;;;0.73;0.33;;;17.40;64.60;;;;;;5205011;28;20212;-64
2022/04/07 07:39:15;;;;;;;0.30;0.30;;;17.40;64.60;;;;;;5192536;28;20573;-65
2022/04/07 07:42:07;;;;;;;0.93;0.20;;;17.40;64.70;;;;;;5204345;28;20232;-64
2022/04/07 07:45:01;;;;;;;0.63;0.33;;;17.40;64.70;;;;;;5220690;28;20209;-64
2022/04/07 07:47:53;;;;;;;1.03;0.33;;;17.40;64.70;;;;;;5203697;28;20208;-65
2022/04/07 07:50:46;;;;;;;0.40;0.30;;;17.40;64.70;;;;;;5204397;28;20198;-65
2022/04/07 07:53:38;;;;;;;0.40;0.20;;;17.40;64.70;;;;;;5203678;28;20601;-66
2022/04/07 07:56:30;;;;;;;0.50;0.40;;;17.40;64.70;;;;;;5203933;28;20214;-66
2022/04/07 07:59:23;;;;;;;1.13;0.30;;;17.40;64.70;;;;;;5204194;28;20673;-66
2022/04/07 08:02:17;;;;;;;0.80;0.40;;;17.40;64.70;;;;;;5202938;28;20221;-65
2022/04/07 08:05:09;;;;;;;1.07;0.20;;;17.30;64.60;;;;;;5202923;28;20218;-65
2022/04/07 08:08:01;;;;;;;0.30;0.20;;;17.40;64.70;;;;;;5205290;28;20202;-66
2022/04/07 08:10:54;;;;;;;0.43;0.40;;;17.40;64.70;;;;;;5205286;28;20206;-65
2022/04/07 08:13:46;;;;;;;0.90;0.40;;;17.40;64.80;;;;;;5186265;28;20705;-66
2022/04/07 08:16:38;;;;;;;0.83;0.20;;;17.40;64.80;;;;;;5183493;28;20264;-66
2022/04/07 08:19:31;;;;;;;0.30;0.23;;;17.40;64.80;;;;;;5183593;28;20203;-63
2022/04/07 08:22:24;;;;;;;0.53;0.20;;;17.40;64.70;;;;;;5183591;28;20597;-65
2022/04/07 08:25:16;;;;;;;0.53;0.30;;;17.40;64.70;;;;;;5195270;28;20220;-65
2022/04/07 08:28:08;;;;;;;0.50;0.40;;;17.40;64.70;;;;;;5204007;28;20211;-65
2022/04/07 08:31:00;;;;;;;0.47;0.33;;;17.40;64.80;;;;;;5202727;28;20580;-65
2022/04/07 08:33:53;;;;;;;0.30;0.30;;;17.40;64.80;;;;;;5206292;28;20225;-66
2022/04/07 08:36:46;;;;;;;0.80;0.30;;;17.40;64.80;;;;;;5213163;28;20197;-66
2022/04/07 08:39:38;;;;;;;1.10;0.40;;;17.40;64.80;;;;;;5202831;28;20197;-65
2022/04/07 08:42:31;;;;;;;0.30;0.20;;;17.40;64.80;;;;;;5202877;28;20218;-65
2022/04/07 08:45:25;;;;;;;0.83;0.40;;;17.40;64.80;;;;;;5203202;28;20255;-66
2022/04/07 08:48:17;;;;;;;0.90;0.30;;;17.30;64.70;;;;;;5203432;28;20201;-65
2022/04/07 08:51:10;;;;;;;0.83;0.30;;;17.40;64.80;;;;;;5201980;28;20955;-65
2022/04/07 08:54:03;;;;;;;0.57;0.30;;;17.40;64.80;;;;;;5203766;28;20222;-66
2022/04/07 08:56:55;;;;;;;0.50;0.40;;;17.40;64.80;;;;;;5202319;28;20204;-65
2022/04/07 08:59:47;;;;;;;0.30;0.30;;;17.40;64.80;;;;;;5203357;28;20198;-66
2022/04/07 09:02:39;;;;;;;0.50;0.30;;;17.40;64.80;;;;;;5200654;28;20224;-65
2022/04/07 09:05:32;;;;;;;0.37;0.30;;;17.40;64.80;;;;;;5219595;28;20201;-65
2022/04/07 09:08:31;;;;;;;0.70;0.40;;;17.40;64.90;;;;;;5222640;28;20197;-65
2022/04/07 09:11:24;;;;;;;1.07;0.30;;;17.40;64.90;;;;;;5221816;28;20200;-65
2022/04/07 09:14:16;;;;;;;1.03;0.40;;;17.30;64.80;;;;;;5214651;28;20578;-62
2022/04/07 09:17:09;;;;;;;0.30;0.30;;;17.30;64.80;;;;;;5209101;28;20577;-65
2022/04/07 09:20:01;;;;;;;0.40;0.20;;;17.40;64.90;;;;;;5201612;28;20201;-65
2022/04/07 09:22:57;;;;;;;0.23;0.23;;;17.40;64.90;;;;;;5202126;28;20308;-65
2022/04/07 09:25:50;;;;;;;0.20;0.20;;;17.40;64.90;;;;;;5205877;28;20201;-64
2022/04/07 09:28:44;;;;;;;0.30;0.30;;;17.40;64.90;;;;;;5203959;28;20201;-66
2022/04/07 09:31:38;;;;;;;0.57;0.40;;;17.40;64.90;;;;;;5205433;28;20219;-65
2022/04/07 09:34:32;;;;;;;0.30;0.30;;;17.40;64.90;;;;;;5216812;28;20248;-65
2022/04/07 09:37:25;;;;;;;0.27;0.20;;;17.40;64.90;;;;;;5202774;28;20280;-64
2022/04/07 09:40:18;;;;;;;0.20;0.20;;;17.40;64.90;;;;;;5183073;28;20203;-65
2022/04/07 09:43:10;;;;;;;0.60;0.30;;;17.40;64.80;;;;;;5195861;28;20221;-66
2022/04/07 09:46:08;;;;;;;0.40;0.20;;;17.40;64.80;;;;;;5201186;28;20280;-65
2022/04/07 09:49:04;;;;;;;0.13;0.13;;;17.40;64.80;;;;;;5202245;28;20632;-66
2022/04/07 09:51:59;;;;;;;0.30;0.30;;;17.40;64.80;;;;;;5184737;28;20213;-66
2022/04/07 09:54:52;;;;;;;0.30;0.20;;;17.40;64.70;;;;;;5182130;28;20573;-65
2022/04/07 09:57:44;;;;;;;0.77;0.30;;;17.40;64.70;;;;;;5181014;28;20202;-64
2022/04/07 10:00:37;;;;;;;0.70;0.30;;;17.30;64.60;;;;;;5198839;28;20198;-64
2022/04/07 10:03:32;;;;;;;0.23;0.20;;;17.40;64.60;;;;;;5220071;28;20217;-65
2022/04/07 10:06:24;;;;;;;1.10;0.57;;;17.40;64.60;;;;;;5221200;28;20575;-64
2022/04/07 10:09:17;;;;;;;0.50;0.30;;;17.40;64.70;;;;;;5201493;28;20218;-65
2022/04/07 10:12:10;;;;;;;0.60;0.50;;;17.40;64.60;;;;;;5180600;28;20191;-65
2022/04/07 10:15:04;;;;;;;0.30;0.30;;;17.40;64.60;;;;;;5194695;28;20232;-65
2022/04/07 10:17:58;;;;;;;0.30;0.20;;;17.40;64.60;;;;;;5201936;28;20199;-66
2022/04/07 10:20:58;;;;;;;0.50;0.30;;;17.40;64.60;;;;;;5201105;28;20205;-65
2022/04/07 10:24:03;;;;;;;0.60;0.30;;;17.40;64.60;;;;;;5201369;28;20243;-66
2022/04/07 10:26:56;;;;;;;0.20;0.10;;;17.40;64.60;;;;;;5202125;28;20203;-65
2022/04/07 10:30:06;;;;;;;0.20;0.20;;;17.40;64.60;;;;;;5218255;28;20205;-66
2022/04/07 10:33:01;;;;;;;1.50;0.20;;;17.40;64.60;;;;;;5220996;28;20193;-66
2022/04/07 10:35:55;;;;;;;0.67;0.40;;;17.40;64.60;;;;;;5221842;28;20208;-65
2022/04/07 10:38:49;;;;;;;0.40;0.10;;;17.40;64.60;;;;;;5221155;28;20522;-65
2022/04/07 10:41:48;;;;;;;0.53;0.30;;;17.40;64.60;;;;;;5220606;28;20213;-65
2022/04/07 10:44:40;;;;;;;0.50;0.30;;;17.40;64.50;;;;;;5203008;28;20525;-64
2022/04/07 10:47:34;;;;;;;0.20;0.20;;;17.40;64.50;;;;;;5200702;28;20198;-65
2022/04/07 10:50:27;;;;;;;0.23;0.20;;;17.40;64.50;;;;;;5199938;28;20202;-65
2022/04/07 10:53:24;;;;;;;0.40;0.20;;;17.40;64.50;;;;;;5201116;28;20692;-64
2022/04/07 10:56:25;;;;;;;1.03;0.37;;;17.40;64.50;;;;;;5214407;28;20283;-65
2022/04/07 10:59:21;;;;;;;0.30;0.23;;;17.50;64.60;;;;;;5221325;28;20578;-65
2022/04/07 11:02:15;;;;;;;0.30;0.30;;;17.40;64.50;;;;;;5221690;28;20366;-65
2022/04/07 11:05:13;;;;;;;0.30;0.20;;;17.40;64.40;;;;;;5202050;28;20253;-65
2022/04/07 11:08:07;;;;;;;1.00;0.30;;;17.40;64.40;;;;;;5200724;28;20240;-65
2022/04/07 11:11:00;;;;;;;0.30;0.30;;;17.40;64.50;;;;;;5200440;28;20573;-65
2022/04/07 11:14:00;;;;;;;0.70;0.40;;;17.40;64.50;;;;;;5200699;28;20700;-65
2022/04/07 11:16:52;;;;;;;0.40;0.10;;;17.40;64.50;;;;;;5201588;28;20202;-65
2022/04/07 11:19:58;;;;;;;0.30;0.30;;;17.40;64.50;;;;;;5202559;28;20205;-65
2022/04/07 11:22:53;;;;;;;0.57;0.30;;;17.40;64.50;;;;;;5180438;28;20236;-65
2022/04/07 11:25:48;;;;;;;0.80;0.30;;;17.40;64.50;;;;;;5180781;28;20202;-65
2022/04/07 11:29:05;;;;;;;0.30;0.30;;;17.40;64.50;;;;;;5181610;28;20200;-65
2022/04/07 11:32:07;;;;;;;0.43;0.30;;;17.40;64.50;;;;;;5211575;28;20290;-65
2022/04/07 11:35:13;;;;;;;0.30;0.30;;;17.40;64.50;;;;;;5203904;28;20619;-65
2022/04/07 11:38:06;;;;;;;0.20;0.20;;;17.40;64.50;;;;;;5200666;28;20688;-65
2022/04/07 11:41:02;;;;;;;0.90;0.27;;;17.40;64.50;;;;;;5205950;28;20200;-65
2022/04/07 11:43:55;;;;;;;0.40;0.20;;;17.40;64.50;;;;;;5214738;28;20230;-65
2022/04/07 11:46:47;;;;;;;0.60;0.20;;;17.40;64.60;;;;;;5204433;28;20212;-65
2022/04/07 11:49:39;;;;;;;0.17;0.17;;;17.40;64.60;;;;;;5204213;28;20198;-66
2022/04/07 11:52:32;;;;;;;0.20;0.20;;;17.40;64.60;;;;;;5184706;28;20202;-66
2022/04/07 11:55:28;;;;;;;0.73;0.30;;;17.40;64.60;;;;;;5184017;28;20229;-65
2022/04/07 11:58:20;;;;;;;1.60;0.30;;;17.40;64.60;;;;;;5184982;28;20186;-66
2022/04/07 12:01:15;;;;;;;0.43;0.30;;;17.40;64.60;;;;;;5183681;28;20743;-64
2022/04/07 12:04:10;;;;;;;0.60;0.30;;;17.40;64.60;;;;;;5196181;28;20222;-65
2022/04/07 12:07:02;;;;;;;0.40;0.20;;;17.40;64.60;;;;;;5207624;28;20201;-65
2022/04/07 12:09:57;;;;;;;0.20;0.10;;;17.40;64.70;;;;;;5225125;28;20200;-65
2022/04/07 12:12:49;;;;;;;0.47;0.30;;;17.40;64.70;;;;;;5222804;28;20193;-64
2022/04/07 12:15:41;;;;;;;0.57;0.30;;;17.40;64.70;;;;;;5223405;28;20198;-65
2022/04/07 12:18:35;;;;;;;0.40;0.20;;;17.40;64.70;;;;;;5223918;28;20219;-64
2022/04/07 12:21:28;;;;;;;0.40;0.20;;;17.40;64.70;;;;;;5223686;28;20280;-65
2022/04/07 12:24:21;;;;;;;0.27;0.20;;;17.40;64.80;;;;;;5223200;28;20217;-65
2022/04/07 12:27:26;;;;;;;0.40;0.30;;;17.40;64.80;;;;;;5223175;28;20576;-68
2022/04/07 12:30:18;;;;;;;0.20;0.20;;;17.40;64.80;;;;;;5222940;28;20244;-69
2022/04/07 12:33:10;;;;;;;0.40;0.20;;;17.40;64.70;;;;;;5220476;28;20185;-68
2022/04/07 12:36:04;;;;;;;0.40;0.20;;;17.40;64.60;;;;;;5222052;28;20205;-68
2022/04/07 12:39:01;;;;;;;0.50;0.30;;;17.50;64.60;;;;;;5222926;28;20310;-68
2022/04/07 12:41:54;;;;;;;0.50;0.30;;;17.50;64.60;;;;;;5212889;28;20194;-68
2022/04/07 12:44:48;;;;;;;0.43;0.20;;;17.50;64.60;;;;;;5207029;28;20274;-68
2022/04/07 12:47:41;;;;;;;0.50;0.40;;;17.50;64.50;;;;;;5203690;28;20240;-67
2022/04/07 12:50:33;;;;;;;2.00;0.40;;;17.50;64.50;;;;;;5202523;28;20253;-68
2022/04/07 12:53:30;;;;;;;0.30;0.20;;;17.50;64.50;;;;;;5202929;28;20217;-68
2022/04/07 12:56:26;;;;;;;1.37;0.23;;;17.50;64.50;;;;;;5203671;28;20270;-69
2022/04/07 12:59:21;;;;;;;0.30;0.20;;;17.60;64.50;;;;;;5202783;28;20280;-68
2022/04/07 13:02:13;;;;;;;0.80;0.30;;;17.60;64.50;;;;;;5202557;28;20635;-68
2022/04/07 13:05:06;;;;;;;1.33;0.37;;;17.60;64.50;;;;;;5202264;28;20218;-68
2022/04/07 13:08:00;;;;;;;0.40;0.23;;;17.60;64.50;;;;;;5202955;28;20202;-67
2022/04/07 13:10:54;;;;;;;0.83;0.20;;;17.60;64.50;;;;;;5212970;28;20201;-67
2022/04/07 13:13:46;;;;;;;0.50;0.30;;;17.60;64.50;;;;;;5237106;22;20293;-66
2022/04/07 13:16:40;;;;;;;1.37;0.50;;;17.60;64.50;;;;;;5243811;28;20222;-66
2022/04/07 13:19:33;;;;;;;0.47;0.27;;;17.60;64.50;;;;;;5241655;28;20196;-65
2022/04/07 13:22:26;;;;;;;0.20;0.20;;;17.60;64.50;;;;;;5232360;28;20223;-66
2022/04/07 13:25:18;;;;;;;0.60;0.40;;;17.60;64.50;;;;;;5266052;28;20246;-66
2022/04/07 13:28:11;;;;;;;0.30;0.20;;;17.60;64.50;;;;;;5265805;28;20564;-65
2022/04/07 13:31:03;;;;;;;1.03;0.37;;;17.60;64.50;;;;;;5265613;28;20264;-65
2022/04/07 13:33:56;;;;;;;2.07;0.40;;;17.60;64.50;;;;;;5264408;28;20212;-65
2022/04/07 13:36:48;;;;;;;0.73;0.27;;;17.60;64.50;;;;;;5245568;28;20696;-65
2022/04/07 13:39:40;;;;;;;0.50;0.20;;;17.60;64.50;;;;;;5244430;28;20188;-65
2022/04/07 13:42:35;;;;;;;0.27;0.27;;;17.60;64.50;;;;;;5244196;28;20303;-66
2022/04/07 13:45:29;;;;;;;1.60;0.30;;;17.60;64.50;;;;;;5235197;28;20283;-66
2022/04/07 13:48:22;;;;;;;0.33;0.20;;;17.60;64.50;;;;;;5245446;28;20204;-65
2022/04/07 13:51:15;;;;;;;0.50;0.40;;;17.60;64.40;;;;;;5244586;28;20669;-65
2022/04/07 13:54:07;;;;;;;0.53;0.30;;;17.60;64.40;;;;;;5245355;28;20271;-66
2022/04/07 13:56:59;;;;;;;0.63;0.47;;;17.60;64.50;;;;;;5245101;28;20197;-66
2022/04/07 13:59:51;;;;;;;0.60;0.33;;;17.60;64.40;;;;;;5236778;28;20228;-66
2022/04/07 14:02:45;;;;;;;0.77;0.23;;;17.60;64.40;;;;;;5242757;28;20289;-67
2022/04/07 14:05:37;;;;;;;0.67;0.27;;;17.60;64.40;;;;;;5246719;28;20274;-67
2022/04/07 14:08:30;;;;;;;0.90;0.40;;;17.60;64.40;;;;;;5243890;28;20196;-67
2022/04/07 14:11:22;;;;;;;0.67;0.37;;;17.60;64.40;;;;;;5241913;28;20192;-66
2022/04/07 14:14:15;;;;;;;0.93;0.30;;;17.60;64.40;;;;;;5242818;28;20215;-67
2022/04/07 14:17:07;;;;;;;0.30;0.23;;;17.60;64.40;;;;;;5244327;28;20318;-66
2022/04/07 14:20:00;;;;;;;0.20;0.20;;;17.60;64.40;;;;;;5243980;28;20196;-66
2022/04/07 14:22:53;;;;;;;0.50;0.30;;;17.60;64.40;;;;;;5242894;28;20243;-67
2022/04/07 14:25:46;;;;;;;1.10;0.40;;;17.60;64.40;;;;;;5237822;28;20192;-67
2022/04/07 14:28:40;;;;;;;0.30;0.20;;;17.60;64.40;;;;;;5243370;28;20200;-67
2022/04/07 14:31:32;;;;;;;0.93;0.40;;;17.60;64.50;;;;;;5243526;28;20341;-68
2022/04/07 14:34:25;;;;;;;0.93;0.30;;;17.60;64.50;;;;;;5264422;28;20191;-67
2022/04/07 14:37:18;;;;;;;0.70;0.40;;;17.60;64.60;;;;;;5264886;28;20217;-70
2022/04/07 14:40:11;;;;;;;0.87;0.40;;;17.60;64.60;;;;;;5263239;28;20656;-68
2022/04/07 14:43:03;;;;;;;0.70;0.47;;;17.60;64.70;;;;;;5262708;28;20634;-68
2022/04/07 14:45:56;;;;;;;0.90;0.40;;;17.60;64.70;;;;;;5255635;28;20205;-68
2022/04/07 14:48:48;;;;;;;0.60;0.40;;;17.70;64.80;;;;;;5232761;28;20192;-68
2022/04/07 14:51:40;;;;;;;0.73;0.30;;;17.60;64.80;;;;;;5235812;28;20342;-67
2022/04/07 14:54:34;;;;;;;1.27;0.30;;;17.60;64.80;;;;;;5241330;28;20258;-68
2022/04/07 14:57:26;;;;;;;0.60;0.43;;;17.70;64.90;;;;;;5243968;28;20271;-67
2022/04/07 15:00:22;;;;;;;1.07;0.50;;;17.60;64.80;;;;;;5237080;28;20231;-68
2022/04/07 15:03:14;;;;;;;1.03;0.63;;;17.60;64.80;;;;;;5243115;28;20216;-66